createdAt,value
2022-10-03T05:04:31.789Z,17.20
2022-10-03T05:09:47.233Z,17.30
2022-10-03T05:15:07.446Z,17.30
2022-10-03T05:20:25.551Z,17.30
2022-10-03T05:25:41.920Z,17.30
2022-10-03T05:30:53.474Z,17.30
2022-10-03T05:36:12.404Z,17.20
2022-10-03T05:41:26.990Z,17.20
2022-10-03T05:46:42.987Z,17.30
2022-10-03T05:52:04.222Z,17.30
2022-10-03T05:57:30.821Z,17.30
2022-10-03T06:03:00.382Z,17.40
2022-10-03T06:08:51.713Z,17.40
2022-10-03T06:14:29.016Z,17.40
2022-10-03T06:19:48.446Z,17.40
2022-10-03T06:25:40.705Z,17.40
2022-10-03T06:31:04.549Z,17.40
2022-10-03T06:36:28.880Z,17.40
2022-10-03T06:42:08.295Z,17.40
2022-10-03T06:47:30.088Z,17.40
2022-10-03T06:53:03.054Z,17.40
2022-10-03T06:58:35.718Z,17.40
2022-10-03T07:04:25.253Z,17.30
2022-10-03T07:10:02.409Z,17.40
2022-10-03T07:15:57.818Z,17.40
2022-10-03T07:21:26.905Z,17.40
2022-10-03T07:27:02.965Z,17.50
2022-10-03T07:32:30.369Z,17.60
2022-10-03T07:38:29.808Z,17.70
2022-10-03T07:44:04.198Z,17.80
2022-10-03T07:49:29.985Z,17.90
2022-10-03T07:54:53.728Z,17.90
2022-10-03T08:00:24.437Z,17.90
2022-10-03T08:05:45.690Z,17.90
2022-10-03T08:11:31.425Z,17.90
2022-10-03T08:17:09.209Z,18.00
2022-10-03T08:22:21.655Z,17.90
2022-10-03T08:27:47.094Z,17.80
2022-10-03T08:33:29.668Z,17.70
2022-10-03T08:38:51.165Z,17.70
2022-10-03T08:44:28.208Z,17.70
2022-10-03T08:50:09.081Z,17.60
2022-10-03T08:55:46.256Z,17.50
2022-10-03T09:01:12.329Z,17.50
2022-10-03T09:07:18.744Z,17.40
2022-10-03T09:12:42.717Z,17.50
2022-10-03T09:18:28.471Z,17.50
2022-10-03T09:23:57.626Z,17.50
2022-10-03T09:29:33.077Z,17.60
2022-10-03T09:35:00.302Z,17.70
2022-10-03T09:40:53.442Z,17.70
2022-10-03T09:46:46.561Z,17.60
2022-10-03T09:52:08.132Z,17.50
2022-10-03T09:57:52.223Z,17.50
2022-10-03T10:03:44.166Z,17.50
2022-10-03T10:09:22.927Z,17.60
2022-10-03T10:14:48.588Z,17.70
2022-10-03T10:20:11.721Z,17.60
2022-10-03T10:25:35.935Z,17.50
2022-10-03T10:31:29.346Z,17.70
2022-10-03T10:37:19.267Z,17.90
2022-10-03T10:43:15.749Z,18.00
2022-10-03T10:49:16.968Z,18.40
2022-10-03T10:55:03.477Z,18.50
2022-10-03T11:00:27.334Z,18.50
2022-10-03T11:06:00.157Z,18.60
2022-10-03T11:11:31.814Z,18.70
2022-10-03T11:17:21.148Z,18.80
2022-10-03T11:23:21.386Z,19.10
2022-10-03T11:29:02.837Z,19.60
2022-10-03T11:34:39.805Z,20.30
2022-10-03T11:39:50.813Z,21.00
2022-10-03T11:45:00.060Z,21.50
2022-10-03T11:50:29.907Z,22.10
2022-10-03T11:55:39.786Z,22.30
2022-10-03T12:00:47.284Z,22.00
2022-10-03T12:06:17.754Z,21.70
2022-10-03T12:11:28.316Z,22.00
2022-10-03T12:16:41.562Z,21.90
2022-10-03T12:21:54.111Z,21.70
2022-10-03T12:27:11.317Z,21.50
2022-10-03T12:32:32.969Z,21.40
2022-10-03T12:37:48.879Z,21.20
2022-10-03T12:43:08.377Z,21.00
2022-10-03T12:48:44.107Z,21.20
2022-10-03T12:53:58.895Z,21.30
2022-10-03T12:59:20.323Z,21.30
2022-10-03T13:04:35.691Z,21.50
2022-10-03T13:10:03.370Z,21.50
2022-10-03T13:15:43.074Z,21.70
2022-10-03T13:21:01.017Z,21.80
2022-10-03T13:26:14.746Z,22.60
2022-10-03T13:31:25.270Z,23.30
2022-10-03T13:36:38.431Z,24.10
2022-10-03T13:42:00.186Z,24.40
2022-10-03T13:47:16.815Z,24.70
2022-10-03T13:52:27.937Z,25.30
2022-10-03T13:57:38.171Z,25.50
2022-10-03T14:02:51.532Z,25.60
2022-10-03T14:08:02.888Z,25.60
2022-10-03T14:13:19.808Z,25.30
2022-10-03T14:18:36.533Z,25.60
2022-10-03T14:23:46.343Z,25.80
2022-10-03T14:28:57.594Z,25.70
2022-10-03T14:34:10.937Z,25.10
2022-10-03T14:39:29.996Z,24.90
2022-10-03T14:44:40.775Z,24.90
2022-10-03T14:49:57.949Z,24.70
2022-10-03T14:55:14.778Z,24.40
2022-10-03T15:00:27.811Z,24.20
2022-10-03T15:05:36.182Z,23.80
2022-10-03T15:10:41.600Z,23.30
2022-10-03T15:15:48.124Z,23.10
2022-10-03T15:20:55.634Z,22.80
2022-10-03T15:26:01.471Z,22.60
2022-10-03T15:31:10.645Z,22.40
2022-10-03T15:36:21.873Z,22.10
2022-10-03T15:41:36.869Z,22.10
2022-10-03T15:46:45.410Z,22.10
2022-10-03T15:51:49.665Z,22.10
2022-10-03T15:56:57.347Z,22.00
2022-10-03T16:02:07.193Z,22.00
2022-10-03T16:07:14.444Z,22.00
2022-10-03T16:12:47.871Z,21.90
2022-10-03T16:17:55.738Z,21.80
2022-10-03T16:23:02.182Z,21.80
2022-10-03T16:28:12.234Z,21.80
2022-10-03T16:33:19.666Z,21.70
2022-10-03T16:38:25.732Z,21.70
2022-10-03T16:43:33.861Z,21.70
2022-10-03T16:48:55.399Z,21.70
2022-10-03T16:53:59.104Z,21.60
2022-10-03T16:59:07.521Z,21.60
2022-10-03T17:04:19.588Z,21.70
2022-10-03T17:09:29.434Z,21.70
2022-10-03T17:14:41.919Z,21.70
2022-10-03T17:19:51.761Z,21.80
2022-10-03T17:25:02.595Z,21.20
2022-10-03T17:30:28.376Z,21.80
2022-10-03T17:35:42.546Z,21.80
2022-10-03T17:41:01.694Z,21.80
2022-10-03T17:46:13.581Z,21.80
2022-10-03T17:51:31.591Z,21.70
2022-10-03T17:56:36.460Z,21.60
2022-10-03T18:01:45.470Z,21.50
2022-10-03T18:06:52.738Z,21.40
2022-10-03T18:12:05.141Z,21.40
2022-10-03T18:17:17.334Z,21.30
2022-10-03T18:22:24.935Z,21.20
2022-10-03T18:28:07.739Z,21.00
2022-10-03T18:33:17.478Z,20.80
2022-10-03T18:38:26.073Z,20.80
2022-10-03T18:43:34.959Z,20.70
2022-10-03T18:49:02.999Z,20.70
2022-10-03T18:54:25.449Z,20.70
2022-10-03T18:59:36.685Z,20.60
2022-10-03T19:04:45.863Z,20.60
2022-10-03T19:10:14.164Z,20.50
2022-10-03T19:15:22.624Z,20.40
2022-10-03T19:20:32.096Z,20.30
2022-10-03T19:25:39.232Z,20.20
2022-10-03T19:30:44.414Z,20.10
2022-10-03T19:35:52.801Z,20.00
2022-10-03T19:41:00.585Z,19.80
2022-10-03T19:46:59.445Z,19.70
2022-10-03T19:52:18.632Z,19.50
2022-10-03T19:57:28.326Z,19.40
2022-10-03T20:02:32.209Z,19.20
2022-10-03T20:07:45.798Z,19.10
2022-10-03T20:12:52.904Z,19.00
2022-10-03T20:18:01.924Z,19.00
2022-10-03T20:23:11.640Z,19.00
2022-10-03T20:28:23.426Z,19.00
2022-10-03T20:33:31.535Z,19.00
2022-10-03T20:38:56.878Z,19.00
2022-10-03T20:44:11.478Z,19.00
2022-10-03T20:49:23.588Z,19.00
2022-10-03T20:54:34.789Z,19.00
2022-10-03T20:59:45.267Z,19.00
2022-10-03T21:04:55.260Z,19.00
2022-10-03T21:10:10.466Z,19.00
2022-10-03T21:15:21.902Z,18.90
2022-10-03T21:20:32.373Z,19.00
2022-10-03T21:25:39.334Z,19.00
2022-10-03T21:30:58.262Z,19.00
2022-10-03T21:36:10.175Z,19.00
2022-10-03T21:41:34.441Z,18.90
2022-10-03T21:46:43.719Z,19.00
2022-10-03T21:52:09.011Z,19.00
2022-10-03T21:57:21.867Z,18.90
2022-10-03T22:02:34.584Z,18.90
2022-10-03T22:07:40.150Z,18.90
2022-10-03T22:12:49.369Z,18.80
2022-10-03T22:17:58.631Z,18.70
2022-10-03T22:23:18.548Z,18.60
2022-10-03T22:28:33.944Z,18.50
